createdAt,value
2017-10-12T00:01:50.910Z,0.00
2017-10-12T00:02:50.789Z,0.00
2017-10-12T00:04:44.198Z,0.00
2017-10-12T00:05:43.488Z,0.00
2017-10-12T00:07:36.242Z,0.00
2017-10-12T00:08:36.086Z,0.00
2017-10-12T00:10:28.954Z,0.00
2017-10-12T00:11:28.830Z,0.00
2017-10-12T00:13:21.593Z,0.00
2017-10-12T00:14:21.512Z,0.00
2017-10-12T00:16:14.571Z,0.00
2017-10-12T00:17:14.267Z,0.00
2017-10-12T00:19:06.916Z,0.00
2017-10-12T00:20:06.828Z,0.00
2017-10-12T00:21:59.647Z,0.00
2017-10-12T00:22:59.519Z,0.00
2017-10-12T00:24:52.328Z,0.00
2017-10-12T00:25:52.244Z,0.00
2017-10-12T00:27:45.040Z,0.00
2017-10-12T00:28:44.966Z,0.00
2017-10-12T00:30:37.683Z,0.00
2017-10-12T00:31:37.573Z,0.00
2017-10-12T00:33:30.819Z,0.00
2017-10-12T00:34:30.735Z,0.00
2017-10-12T00:36:23.528Z,0.00
2017-10-12T00:37:23.403Z,0.00
2017-10-12T00:39:16.209Z,0.00
2017-10-12T00:40:16.159Z,0.00
2017-10-12T00:42:08.998Z,0.00
2017-10-12T00:43:08.912Z,0.00
2017-10-12T00:45:01.491Z,0.00
2017-10-12T00:46:01.409Z,0.00
2017-10-12T00:47:54.202Z,0.00
2017-10-12T00:48:54.079Z,0.00
2017-10-12T00:50:46.998Z,0.00
2017-10-12T00:51:46.736Z,0.00
2017-10-12T00:53:39.595Z,0.00
2017-10-12T00:54:39.394Z,0.00
2017-10-12T00:56:32.206Z,0.00
2017-10-12T00:57:32.084Z,0.00
2017-10-12T00:59:24.975Z,0.00
2017-10-12T01:00:24.887Z,0.00
2017-10-12T01:02:18.245Z,0.00
2017-10-12T01:03:18.054Z,0.00
2017-10-12T01:05:11.106Z,0.00
2017-10-12T01:06:10.697Z,0.00
2017-10-12T01:08:03.497Z,0.00
2017-10-12T01:09:03.345Z,0.00
2017-10-12T01:10:56.241Z,0.00
2017-10-12T01:11:56.160Z,0.00
2017-10-12T01:13:49.038Z,0.00
2017-10-12T01:14:48.840Z,0.00
2017-10-12T01:16:41.575Z,0.00
2017-10-12T01:17:41.492Z,0.00
2017-10-12T01:19:34.300Z,0.00
2017-10-12T01:20:34.146Z,0.00
2017-10-12T01:22:26.945Z,0.00
2017-10-12T01:23:26.859Z,0.00
2017-10-12T01:25:19.741Z,0.00
2017-10-12T01:26:19.623Z,0.00
2017-10-12T01:28:12.360Z,0.00
2017-10-12T01:29:12.362Z,0.00
2017-10-12T01:31:05.087Z,0.00
2017-10-12T01:32:04.957Z,0.00
2017-10-12T01:33:57.736Z,0.00
2017-10-12T01:34:57.646Z,0.00
2017-10-12T01:36:50.517Z,0.00
2017-10-12T01:37:50.321Z,0.00
2017-10-12T01:39:43.277Z,0.00
2017-10-12T01:40:42.984Z,0.00
2017-10-12T01:42:35.796Z,0.00
2017-10-12T01:43:35.642Z,0.00
2017-10-12T01:45:28.498Z,0.00
2017-10-12T01:46:28.350Z,0.00
2017-10-12T01:48:21.100Z,0.00
2017-10-12T01:49:21.043Z,0.00
2017-10-12T01:51:13.883Z,0.00
2017-10-12T01:52:13.777Z,0.00
2017-10-12T01:54:06.445Z,0.00
2017-10-12T01:55:06.327Z,0.00
2017-10-12T01:56:59.107Z,0.00
2017-10-12T01:57:58.981Z,0.00
2017-10-12T01:59:52.178Z,0.00
2017-10-12T02:00:52.091Z,0.00
2017-10-12T02:02:44.980Z,0.00
2017-10-12T02:03:44.805Z,0.00
2017-10-12T02:05:37.499Z,0.00
2017-10-12T02:06:37.425Z,0.00
2017-10-12T02:08:30.194Z,0.00
2017-10-12T02:09:30.069Z,0.00
2017-10-12T02:11:22.820Z,0.00
2017-10-12T02:12:22.743Z,0.00
2017-10-12T02:14:15.691Z,0.00
2017-10-12T02:15:15.464Z,0.00
2017-10-12T02:17:08.148Z,0.00
2017-10-12T02:18:08.127Z,0.00
2017-10-12T02:20:00.862Z,0.00
2017-10-12T02:21:00.731Z,0.00
2017-10-12T02:22:53.525Z,0.00
2017-10-12T02:23:53.440Z,0.00
2017-10-12T02:25:46.259Z,0.00
2017-10-12T02:26:46.153Z,0.00
2017-10-12T02:28:38.892Z,0.00
2017-10-12T02:29:38.816Z,0.00
2017-10-12T02:31:31.644Z,0.00
2017-10-12T02:32:31.486Z,0.00
2017-10-12T02:34:24.498Z,0.00
2017-10-12T02:35:24.354Z,0.00
2017-10-12T02:37:17.586Z,0.00
2017-10-12T02:38:17.502Z,0.00
2017-10-12T02:40:10.614Z,0.00
2017-10-12T02:41:10.157Z,0.00
2017-10-12T02:43:02.874Z,0.00
2017-10-12T02:44:02.792Z,0.00
2017-10-12T02:45:55.581Z,0.00
2017-10-12T02:46:55.453Z,0.00
2017-10-12T02:48:48.304Z,0.00
2017-10-12T02:49:48.144Z,0.00
2017-10-12T02:51:41.048Z,0.00
2017-10-12T02:52:40.923Z,0.00
2017-10-12T02:54:33.512Z,0.00
2017-10-12T02:55:33.434Z,0.00
2017-10-12T02:57:26.204Z,0.00
2017-10-12T02:58:26.078Z,0.00
2017-10-12T03:00:18.827Z,0.00
2017-10-12T03:01:18.750Z,0.00
2017-10-12T03:03:11.609Z,0.00
2017-10-12T03:04:11.398Z,0.00
2017-10-12T03:06:04.177Z,0.00
2017-10-12T03:07:04.054Z,0.00
2017-10-12T03:08:56.812Z,0.00
2017-10-12T03:09:56.727Z,0.00
2017-10-12T03:11:49.589Z,0.00
2017-10-12T03:12:49.432Z,0.00
2017-10-12T03:14:42.993Z,0.00
2017-10-12T03:15:42.114Z,0.00
2017-10-12T03:17:34.907Z,0.00
2017-10-12T03:18:34.729Z,0.00
2017-10-12T03:20:27.452Z,0.00
2017-10-12T03:21:27.368Z,0.00
2017-10-12T03:23:20.247Z,0.00
2017-10-12T03:24:20.166Z,0.00
2017-10-12T03:26:13.010Z,0.00
2017-10-12T03:27:12.779Z,0.00
2017-10-12T03:29:05.608Z,0.00
2017-10-12T03:30:05.417Z,0.00
2017-10-12T03:31:58.695Z,0.00
2017-10-12T03:32:58.569Z,0.00
2017-10-12T03:34:51.312Z,0.00
2017-10-12T03:35:51.250Z,0.00
2017-10-12T03:37:44.198Z,0.00
2017-10-12T03:38:43.872Z,0.00
2017-10-12T03:40:36.603Z,0.00
2017-10-12T03:41:36.531Z,0.00
2017-10-12T03:43:29.301Z,0.00
2017-10-12T03:44:29.188Z,0.00
2017-10-12T03:46:21.926Z,0.00
2017-10-12T03:47:21.864Z,0.00
2017-10-12T03:49:14.788Z,0.00
2017-10-12T03:50:14.714Z,0.00
2017-10-12T03:52:07.522Z,0.00
2017-10-12T03:53:07.313Z,0.00
2017-10-12T03:55:00.029Z,0.00
2017-10-12T03:55:59.944Z,0.00
2017-10-12T03:57:52.861Z,0.00
2017-10-12T03:58:52.732Z,0.00
2017-10-12T04:00:45.539Z,0.00
2017-10-12T04:01:45.468Z,0.00
2017-10-12T04:03:38.211Z,0.00
2017-10-12T04:04:38.112Z,0.00
2017-10-12T04:06:30.856Z,0.00
2017-10-12T04:07:30.772Z,0.00
2017-10-12T04:09:23.652Z,0.00
2017-10-12T04:10:23.522Z,0.00
2017-10-12T04:12:16.470Z,0.00
2017-10-12T04:13:16.186Z,0.00
2017-10-12T04:15:09.227Z,0.00
2017-10-12T04:16:08.843Z,0.00
2017-10-12T04:18:02.102Z,0.00
2017-10-12T04:19:01.981Z,0.00
2017-10-12T04:20:54.785Z,0.00
2017-10-12T04:21:54.708Z,0.00
2017-10-12T04:23:47.579Z,0.00
2017-10-12T04:24:47.362Z,0.00
2017-10-12T04:26:40.208Z,0.00
2017-10-12T04:27:40.022Z,0.00
2017-10-12T04:29:33.283Z,0.00
2017-10-12T04:30:33.154Z,0.00
2017-10-12T04:32:25.980Z,0.00
2017-10-12T04:33:25.891Z,0.00
2017-10-12T04:35:18.775Z,0.00
2017-10-12T04:36:18.691Z,0.00
2017-10-12T04:38:11.430Z,0.00
2017-10-12T04:39:11.322Z,0.00
2017-10-12T04:41:04.394Z,0.00
2017-10-12T04:42:03.930Z,0.00
2017-10-12T04:43:56.719Z,0.00
2017-10-12T04:44:56.593Z,0.00
2017-10-12T04:46:49.702Z,0.00
2017-10-12T04:47:49.580Z,0.00
2017-10-12T04:49:42.754Z,0.00
2017-10-12T04:50:42.222Z,0.00
2017-10-12T04:52:35.095Z,0.00
2017-10-12T04:53:34.886Z,0.00
2017-10-12T04:55:27.713Z,0.00
2017-10-12T04:56:27.586Z,0.00
2017-10-12T04:58:20.442Z,0.00
2017-10-12T04:59:20.336Z,0.00
2017-10-12T05:01:13.116Z,0.00
2017-10-12T05:02:12.968Z,0.00
2017-10-12T05:04:05.871Z,0.00
2017-10-12T05:05:05.671Z,0.00
2017-10-12T05:06:58.348Z,0.00
2017-10-12T05:07:58.262Z,0.00
2017-10-12T05:09:51.163Z,0.00
2017-10-12T05:10:51.053Z,0.00
2017-10-12T05:12:43.812Z,0.00
2017-10-12T05:13:43.709Z,0.00
2017-10-12T05:15:36.447Z,0.00
2017-10-12T05:16:36.323Z,0.00
2017-10-12T05:18:29.073Z,0.00
2017-10-12T05:19:28.991Z,0.00
2017-10-12T05:21:21.863Z,0.00
2017-10-12T05:22:21.734Z,0.00
2017-10-12T05:24:14.605Z,0.00
2017-10-12T05:25:14.416Z,0.00
2017-10-12T05:27:07.169Z,0.00
2017-10-12T05:28:07.045Z,0.00
2017-10-12T05:29:59.900Z,0.00
2017-10-12T05:30:59.772Z,5.63
2017-10-12T05:32:52.527Z,5.63
2017-10-12T05:33:52.442Z,5.63
2017-10-12T05:35:45.292Z,5.63
2017-10-12T05:36:45.099Z,5.63
2017-10-12T05:38:37.839Z,5.63
2017-10-12T05:39:37.847Z,5.63
2017-10-12T05:41:30.552Z,11.25
2017-10-12T05:42:30.417Z,11.25
2017-10-12T05:44:23.399Z,11.25
2017-10-12T05:45:23.319Z,11.25
2017-10-12T05:47:16.688Z,11.25
2017-10-12T05:48:16.469Z,11.25
2017-10-12T05:50:09.466Z,16.88
2017-10-12T05:51:09.158Z,16.88
2017-10-12T05:53:01.900Z,16.88
2017-10-12T05:54:01.762Z,16.88
2017-10-12T05:55:54.556Z,16.88
2017-10-12T05:56:54.429Z,16.88
2017-10-12T05:58:47.271Z,16.88
2017-10-12T05:59:47.188Z,22.50
2017-10-12T06:01:40.727Z,22.50
2017-10-12T06:02:40.348Z,22.50
2017-10-12T06:04:33.074Z,22.50
2017-10-12T06:05:32.998Z,22.50
2017-10-12T06:07:25.863Z,28.13
2017-10-12T06:08:25.734Z,28.13
2017-10-12T06:10:18.565Z,28.13
2017-10-12T06:11:18.401Z,28.13
2017-10-12T06:13:11.260Z,33.75
2017-10-12T06:14:11.095Z,33.75
2017-10-12T06:16:04.399Z,45.00
2017-10-12T06:17:04.201Z,45.00
2017-10-12T06:18:57.013Z,50.63
2017-10-12T06:19:56.925Z,56.25
2017-10-12T06:21:50.392Z,61.88
2017-10-12T06:22:50.257Z,61.88
2017-10-12T06:24:43.517Z,61.88
2017-10-12T06:25:43.335Z,61.88
2017-10-12T06:27:36.217Z,56.25
2017-10-12T06:28:36.057Z,56.25
2017-10-12T06:30:28.771Z,56.25
2017-10-12T06:31:28.684Z,56.25
2017-10-12T06:33:21.833Z,56.25
2017-10-12T06:34:21.783Z,56.25
2017-10-12T06:36:15.374Z,61.88
2017-10-12T06:37:14.442Z,61.88
2017-10-12T06:39:07.082Z,73.13
2017-10-12T06:40:07.001Z,73.13
2017-10-12T06:41:59.727Z,78.75
2017-10-12T06:42:59.594Z,78.75
2017-10-12T06:44:52.854Z,84.38
2017-10-12T06:45:52.773Z,84.38
2017-10-12T06:47:45.617Z,84.38
2017-10-12T06:48:46.018Z,90.00
2017-10-12T06:50:38.235Z,101.25
2017-10-12T06:51:38.145Z,106.88
2017-10-12T06:53:30.968Z,112.50
2017-10-12T06:54:30.839Z,106.88
2017-10-12T06:56:23.624Z,101.25
2017-10-12T06:57:23.498Z,95.63
2017-10-12T06:59:16.471Z,95.63
2017-10-12T07:00:16.154Z,90.00
2017-10-12T07:02:09.450Z,84.38
2017-10-12T07:03:09.326Z,84.38
2017-10-12T07:05:02.039Z,67.50
2017-10-12T07:06:01.959Z,67.50
2017-10-12T07:07:55.381Z,67.50
2017-10-12T07:08:55.252Z,73.13
2017-10-12T07:10:48.123Z,73.13
2017-10-12T07:11:47.988Z,73.13
2017-10-12T07:13:40.860Z,78.75
2017-10-12T07:14:40.637Z,78.75
2017-10-12T07:16:33.364Z,90.00
2017-10-12T07:17:33.287Z,95.63
2017-10-12T07:19:26.098Z,90.00
2017-10-12T07:20:25.971Z,84.38
2017-10-12T07:22:18.901Z,73.13
2017-10-12T07:23:18.645Z,78.75
2017-10-12T07:25:11.513Z,90.00
2017-10-12T07:26:11.337Z,90.00
2017-10-12T07:28:04.093Z,90.00
2017-10-12T07:29:03.976Z,90.00
2017-10-12T07:30:56.762Z,84.38
2017-10-12T07:31:56.624Z,78.75
2017-10-12T07:33:50.058Z,73.13
2017-10-12T07:34:49.996Z,78.75
2017-10-12T07:36:42.726Z,90.00
2017-10-12T07:37:42.773Z,84.38
2017-10-12T07:39:35.385Z,95.63
2017-10-12T07:40:35.237Z,101.25
2017-10-12T07:42:27.987Z,95.63
2017-10-12T07:43:27.905Z,84.38
2017-10-12T07:45:20.785Z,106.88
2017-10-12T07:46:20.575Z,112.50
2017-10-12T07:48:13.447Z,106.88
2017-10-12T07:49:13.241Z,135.00
2017-10-12T07:51:05.962Z,151.88
2017-10-12T07:52:05.875Z,163.13
2017-10-12T07:53:58.643Z,157.50
2017-10-12T07:54:58.522Z,146.25
2017-10-12T07:56:51.798Z,135.00
2017-10-12T07:57:51.676Z,112.50
2017-10-12T07:59:44.549Z,106.88
2017-10-12T08:00:44.334Z,101.25
2017-10-12T08:02:37.170Z,95.63
2017-10-12T08:03:36.987Z,101.25
2017-10-12T08:05:30.256Z,95.63
2017-10-12T08:06:30.130Z,101.25
2017-10-12T08:08:23.029Z,129.38
2017-10-12T08:09:22.863Z,135.00
2017-10-12T08:11:15.631Z,129.38
2017-10-12T08:12:15.530Z,129.38
2017-10-12T08:14:08.339Z,123.75
2017-10-12T08:15:08.179Z,123.75
2017-10-12T08:17:00.930Z,123.75
2017-10-12T08:18:00.843Z,123.75
2017-10-12T08:19:53.672Z,129.38
2017-10-12T08:20:54.040Z,123.75
2017-10-12T08:22:46.349Z,106.88
2017-10-12T08:23:46.185Z,101.25
2017-10-12T08:25:39.195Z,123.75
2017-10-12T08:26:38.866Z,118.13
2017-10-12T08:28:31.624Z,84.38
2017-10-12T08:29:31.492Z,67.50
2017-10-12T08:31:24.545Z,61.88
2017-10-12T08:32:24.463Z,78.75
2017-10-12T08:34:17.841Z,106.88
2017-10-12T08:35:17.755Z,135.00
2017-10-12T08:37:10.698Z,135.00
2017-10-12T08:38:10.377Z,112.50
2017-10-12T08:40:03.094Z,73.13
2017-10-12T08:41:03.014Z,67.50
2017-10-12T08:42:55.808Z,78.75
2017-10-12T08:43:55.692Z,84.38
2017-10-12T08:45:48.518Z,90.00
2017-10-12T08:46:48.426Z,90.00
2017-10-12T08:48:41.377Z,73.13
2017-10-12T08:49:41.089Z,61.88
2017-10-12T08:51:33.777Z,61.88
2017-10-12T08:52:33.722Z,67.50
2017-10-12T08:54:26.502Z,73.13
2017-10-12T08:55:26.375Z,73.13
2017-10-12T08:57:19.228Z,90.00
2017-10-12T08:58:19.121Z,90.00
2017-10-12T09:00:11.927Z,90.00
2017-10-12T09:01:11.775Z,95.63
2017-10-12T09:03:04.552Z,95.63
2017-10-12T09:04:04.450Z,95.63
2017-10-12T09:05:57.132Z,101.25
2017-10-12T09:06:57.051Z,106.88
2017-10-12T09:08:49.882Z,112.50
2017-10-12T09:09:49.721Z,118.13
2017-10-12T09:11:42.549Z,135.00
2017-10-12T09:12:42.465Z,129.38
2017-10-12T09:14:35.117Z,135.00
2017-10-12T09:15:35.101Z,129.38
2017-10-12T09:17:27.822Z,135.00
2017-10-12T09:18:27.700Z,135.00
2017-10-12T09:20:20.545Z,140.63
2017-10-12T09:21:20.371Z,146.25
2017-10-12T09:23:13.160Z,140.63
2017-10-12T09:24:13.050Z,151.88
2017-10-12T09:26:05.842Z,129.38
2017-10-12T09:27:05.679Z,135.00
2017-10-12T09:28:58.598Z,118.13
2017-10-12T09:29:58.516Z,118.13
2017-10-12T09:31:51.496Z,118.13
2017-10-12T09:32:51.288Z,112.50
2017-10-12T09:34:44.163Z,101.25
2017-10-12T09:35:43.868Z,101.25
2017-10-12T09:37:36.708Z,73.13
2017-10-12T09:38:36.498Z,78.75
2017-10-12T09:40:29.234Z,61.88
2017-10-12T09:41:29.153Z,56.25
2017-10-12T09:43:21.940Z,73.13
2017-10-12T09:44:21.816Z,90.00
2017-10-12T09:46:14.935Z,101.25
2017-10-12T09:47:14.583Z,112.50
2017-10-12T09:49:07.269Z,90.00
2017-10-12T09:50:07.149Z,78.75
2017-10-12T09:52:00.150Z,73.13
2017-10-12T09:52:59.802Z,78.75
2017-10-12T09:54:52.567Z,90.00
2017-10-12T09:55:52.483Z,101.25
2017-10-12T09:57:45.393Z,101.25
2017-10-12T09:58:45.231Z,123.75
2017-10-12T10:00:38.016Z,106.88
2017-10-12T10:01:37.889Z,129.38
2017-10-12T10:03:30.654Z,135.00
2017-10-12T10:04:30.527Z,191.25
2017-10-12T10:06:23.283Z,331.88
2017-10-12T10:07:23.201Z,270.00
2017-10-12T10:09:16.013Z,196.88
2017-10-12T10:10:15.875Z,230.63
2017-10-12T10:12:08.663Z,208.13
2017-10-12T10:13:08.523Z,213.75
2017-10-12T10:15:01.872Z,253.13
2017-10-12T10:16:01.676Z,292.50
2017-10-12T10:17:54.482Z,331.88
2017-10-12T10:18:54.352Z,298.13
2017-10-12T10:20:47.100Z,298.13
2017-10-12T10:21:47.023Z,405.00
2017-10-12T10:23:39.897Z,270.00
2017-10-12T10:24:39.718Z,281.25
2017-10-12T10:26:32.407Z,253.13
2017-10-12T10:27:32.327Z,270.00
2017-10-12T10:29:25.136Z,331.88
2017-10-12T10:30:25.011Z,348.75
2017-10-12T10:32:17.813Z,365.63
2017-10-12T10:33:17.675Z,410.63
2017-10-12T10:35:10.761Z,461.25
2017-10-12T10:36:10.367Z,292.50
2017-10-12T10:38:03.203Z,388.13
2017-10-12T10:39:02.997Z,337.50
2017-10-12T10:40:55.794Z,421.88
2017-10-12T10:41:55.709Z,433.13
2017-10-12T10:43:48.541Z,382.50
2017-10-12T10:44:48.495Z,376.88
2017-10-12T10:46:41.263Z,444.38
2017-10-12T10:47:41.053Z,528.75
2017-10-12T10:49:34.070Z,416.25
2017-10-12T10:50:33.716Z,573.75
2017-10-12T10:52:26.563Z,905.63
2017-10-12T10:53:26.436Z,450.00
2017-10-12T10:55:19.391Z,343.13
2017-10-12T10:56:19.106Z,804.38
2017-10-12T10:58:12.093Z,421.88
2017-10-12T10:59:11.853Z,196.88
2017-10-12T11:01:04.594Z,157.50
2017-10-12T11:02:04.450Z,135.00
2017-10-12T11:03:57.265Z,292.50
2017-10-12T11:04:57.142Z,219.38
2017-10-12T11:06:50.098Z,416.25
2017-10-12T11:07:49.998Z,742.50
2017-10-12T11:09:43.461Z,185.63
2017-10-12T11:10:43.153Z,286.88
2017-10-12T11:12:35.998Z,455.63
2017-10-12T11:13:35.837Z,185.63
2017-10-12T11:15:28.620Z,140.63
2017-10-12T11:16:28.542Z,343.13
2017-10-12T11:18:21.420Z,174.38
2017-10-12T11:19:21.303Z,129.38
2017-10-12T11:21:14.061Z,95.63
2017-10-12T11:22:14.052Z,106.88
2017-10-12T11:24:06.795Z,157.50
2017-10-12T11:25:06.642Z,146.25
2017-10-12T11:26:59.374Z,146.25
2017-10-12T11:27:59.296Z,106.88
2017-10-12T11:29:52.209Z,146.25
2017-10-12T11:30:52.084Z,208.13
2017-10-12T11:32:45.052Z,348.75
2017-10-12T11:33:44.858Z,438.75
2017-10-12T11:35:37.538Z,253.13
2017-10-12T11:36:37.581Z,247.50
2017-10-12T11:38:30.216Z,433.13
2017-10-12T11:39:30.103Z,151.88
2017-10-12T11:41:22.953Z,2311.88
2017-10-12T11:42:22.886Z,168.75
2017-10-12T11:44:15.847Z,129.38
2017-10-12T11:45:15.578Z,112.50
2017-10-12T11:47:08.355Z,78.75
2017-10-12T11:48:08.287Z,78.75
2017-10-12T11:50:01.051Z,78.75
2017-10-12T11:51:00.934Z,140.63
2017-10-12T11:52:53.816Z,101.25
2017-10-12T11:53:53.684Z,95.63
2017-10-12T11:55:46.530Z,163.13
2017-10-12T11:56:46.492Z,174.38
2017-10-12T11:58:39.280Z,180.00
2017-10-12T11:59:39.131Z,421.88
2017-10-12T12:01:31.848Z,129.38
2017-10-12T12:02:31.767Z,106.88
2017-10-12T12:04:24.821Z,84.38
2017-10-12T12:05:24.697Z,95.63
2017-10-12T12:07:17.575Z,157.50
2017-10-12T12:08:17.425Z,129.38
2017-10-12T12:10:10.374Z,135.00
2017-10-12T12:11:10.148Z,320.63
2017-10-12T12:13:03.044Z,1653.75
2017-10-12T12:14:02.915Z,540.00
2017-10-12T12:15:55.752Z,1366.88
2017-10-12T12:16:55.674Z,1141.88
2017-10-12T12:18:48.527Z,1760.63
2017-10-12T12:19:48.384Z,810.00
2017-10-12T12:21:41.107Z,2255.63
2017-10-12T12:22:41.018Z,410.63
2017-10-12T12:24:33.835Z,376.88
2017-10-12T12:25:33.731Z,1428.75
2017-10-12T12:27:26.442Z,2936.25
2017-10-12T12:28:26.365Z,376.88
2017-10-12T12:30:19.776Z,163.13
2017-10-12T12:31:19.654Z,146.25
2017-10-12T12:33:12.689Z,95.63
2017-10-12T12:34:12.357Z,95.63
2017-10-12T12:36:05.569Z,95.63
2017-10-12T12:37:05.490Z,129.38
2017-10-12T12:38:58.301Z,253.13
2017-10-12T12:39:58.177Z,258.75
2017-10-12T12:41:51.044Z,354.38
2017-10-12T12:42:50.943Z,461.25
2017-10-12T12:44:44.268Z,298.13
2017-10-12T12:45:44.115Z,264.38
2017-10-12T12:47:36.917Z,241.88
2017-10-12T12:48:36.756Z,163.13
2017-10-12T12:50:29.555Z,106.88
2017-10-12T12:51:29.428Z,78.75
2017-10-12T12:53:22.360Z,67.50
2017-10-12T12:54:22.253Z,61.88
2017-10-12T12:56:15.223Z,73.13
2017-10-12T12:57:14.986Z,84.38
2017-10-12T12:59:07.785Z,168.75
2017-10-12T13:00:07.612Z,225.00
2017-10-12T13:02:00.359Z,388.13
2017-10-12T13:03:00.282Z,416.25
2017-10-12T13:04:53.147Z,517.50
2017-10-12T13:05:53.154Z,478.13
2017-10-12T13:07:46.003Z,489.38
2017-10-12T13:08:45.836Z,444.38
2017-10-12T13:10:38.667Z,360.00
2017-10-12T13:11:38.498Z,331.88
2017-10-12T13:13:31.293Z,348.75
2017-10-12T13:14:31.173Z,281.25
2017-10-12T13:16:23.935Z,331.88
2017-10-12T13:17:23.999Z,444.38
2017-10-12T13:19:16.714Z,376.88
2017-10-12T13:20:16.648Z,292.50
2017-10-12T13:22:09.689Z,658.13
2017-10-12T13:23:09.672Z,916.88
2017-10-12T13:25:02.176Z,461.25
2017-10-12T13:26:01.989Z,393.75
2017-10-12T13:27:56.045Z,298.13
2017-10-12T13:28:55.788Z,247.50
2017-10-12T13:30:48.660Z,393.75
2017-10-12T13:31:48.518Z,365.63
2017-10-12T13:33:41.551Z,523.13
2017-10-12T13:34:41.137Z,450.00
2017-10-12T13:36:34.387Z,506.25
2017-10-12T13:37:34.301Z,438.75
2017-10-12T13:39:27.196Z,264.38
2017-10-12T13:40:27.074Z,270.00
2017-10-12T13:42:20.056Z,354.38
2017-10-12T13:43:19.810Z,315.00
2017-10-12T13:45:12.612Z,286.88
2017-10-12T13:46:12.498Z,309.38
2017-10-12T13:48:05.333Z,208.13
2017-10-12T13:49:05.112Z,202.50
2017-10-12T13:50:57.932Z,225.00
2017-10-12T13:51:57.856Z,213.75
2017-10-12T13:53:51.342Z,258.75
2017-10-12T13:54:51.117Z,270.00
2017-10-12T13:56:43.998Z,191.25
2017-10-12T13:57:43.797Z,168.75
2017-10-12T13:59:36.604Z,146.25
2017-10-12T14:00:36.501Z,163.13
2017-10-12T14:02:29.215Z,168.75
2017-10-12T14:03:29.139Z,196.88
2017-10-12T14:05:22.026Z,241.88
2017-10-12T14:06:21.902Z,303.75
2017-10-12T14:08:14.769Z,388.13
2017-10-12T14:09:14.771Z,309.38
2017-10-12T14:11:07.337Z,270.00
2017-10-12T14:12:07.242Z,219.38
2017-10-12T14:14:00.170Z,225.00
2017-10-12T14:15:00.048Z,219.38
2017-10-12T14:16:53.140Z,225.00
2017-10-12T14:17:53.051Z,185.63
2017-10-12T14:19:45.932Z,151.88
2017-10-12T14:20:45.825Z,140.63
2017-10-12T14:22:38.640Z,157.50
2017-10-12T14:23:38.638Z,174.38
2017-10-12T14:25:31.382Z,180.00
2017-10-12T14:26:31.251Z,185.63
2017-10-12T14:28:24.558Z,196.88
2017-10-12T14:29:24.435Z,185.63
2017-10-12T14:31:17.257Z,174.38
2017-10-12T14:32:17.107Z,191.25
2017-10-12T14:34:09.926Z,202.50
2017-10-12T14:35:09.833Z,196.88
2017-10-12T14:37:02.633Z,157.50
2017-10-12T14:38:02.552Z,163.13
2017-10-12T14:39:55.389Z,185.63
2017-10-12T14:40:55.266Z,180.00
2017-10-12T14:42:48.076Z,151.88
2017-10-12T14:43:47.978Z,129.38
2017-10-12T14:45:40.971Z,135.00
2017-10-12T14:46:40.632Z,135.00
2017-10-12T14:48:33.387Z,135.00
2017-10-12T14:49:33.262Z,140.63
2017-10-12T14:51:26.115Z,146.25
2017-10-12T14:52:26.035Z,140.63
2017-10-12T14:54:18.969Z,140.63
2017-10-12T14:55:18.788Z,151.88
2017-10-12T14:57:11.535Z,135.00
2017-10-12T14:58:11.458Z,129.38
2017-10-12T15:00:04.237Z,118.13
2017-10-12T15:01:04.097Z,123.75
2017-10-12T15:02:56.976Z,112.50
2017-10-12T15:03:56.896Z,106.88
2017-10-12T15:05:49.901Z,106.88
2017-10-12T15:06:49.709Z,112.50
2017-10-12T15:08:42.935Z,106.88
2017-10-12T15:09:42.479Z,106.88
2017-10-12T15:11:35.137Z,106.88
2017-10-12T15:12:35.073Z,112.50
2017-10-12T15:14:27.826Z,112.50
2017-10-12T15:15:27.702Z,118.13
2017-10-12T15:17:21.453Z,112.50
2017-10-12T15:18:21.340Z,112.50
2017-10-12T15:20:14.762Z,112.50
2017-10-12T15:21:14.821Z,112.50
2017-10-12T15:23:07.831Z,112.50
2017-10-12T15:24:07.626Z,112.50
2017-10-12T15:26:00.428Z,101.25
2017-10-12T15:27:00.303Z,101.25
2017-10-12T15:28:53.257Z,95.63
2017-10-12T15:29:53.134Z,101.25
2017-10-12T15:31:45.978Z,90.00
2017-10-12T15:32:45.920Z,90.00
2017-10-12T15:34:39.414Z,90.00
2017-10-12T15:35:38.644Z,90.00
2017-10-12T15:37:31.394Z,84.38
2017-10-12T15:38:31.316Z,84.38
2017-10-12T15:40:24.381Z,90.00
2017-10-12T15:41:24.257Z,84.38
2017-10-12T15:43:17.154Z,78.75
2017-10-12T15:44:16.987Z,78.75
2017-10-12T15:46:10.415Z,73.13
2017-10-12T15:47:09.734Z,73.13
2017-10-12T15:49:02.937Z,67.50
2017-10-12T15:50:02.808Z,61.88
2017-10-12T15:51:55.714Z,56.25
2017-10-12T15:52:55.580Z,56.25
2017-10-12T15:54:48.468Z,45.00
2017-10-12T15:55:48.262Z,39.38
2017-10-12T15:57:41.536Z,33.75
2017-10-12T15:58:40.975Z,33.75
2017-10-12T16:00:33.715Z,33.75
2017-10-12T16:01:33.632Z,33.75
2017-10-12T16:03:26.428Z,28.13
2017-10-12T16:04:26.347Z,28.13
2017-10-12T16:06:19.372Z,28.13
2017-10-12T16:07:19.257Z,28.13
2017-10-12T16:09:12.223Z,22.50
2017-10-12T16:10:11.908Z,22.50
2017-10-12T16:12:04.671Z,16.88
2017-10-12T16:13:04.565Z,16.88
2017-10-12T16:14:57.371Z,16.88
2017-10-12T16:15:57.245Z,16.88
2017-10-12T16:17:50.639Z,11.25
2017-10-12T16:18:50.591Z,11.25
2017-10-12T16:20:43.939Z,11.25
2017-10-12T16:21:43.799Z,11.25
2017-10-12T16:23:36.498Z,5.63
2017-10-12T16:24:37.080Z,5.63
2017-10-12T16:26:29.216Z,5.63
2017-10-12T16:29:22.008Z,0.00
2017-10-12T16:30:21.882Z,0.00
2017-10-12T16:32:14.804Z,0.00
2017-10-12T16:33:14.633Z,0.00
2017-10-12T16:35:07.525Z,0.00
2017-10-12T16:36:07.278Z,0.00
2017-10-12T16:37:59.961Z,0.00
2017-10-12T16:38:59.897Z,0.00
2017-10-12T16:40:52.783Z,0.00
2017-10-12T16:41:52.657Z,0.00
2017-10-12T16:43:45.623Z,0.00
2017-10-12T16:44:45.582Z,0.00
2017-10-12T16:46:38.204Z,0.00
2017-10-12T16:47:38.282Z,0.00
2017-10-12T16:49:30.926Z,0.00
2017-10-12T16:52:23.563Z,0.00
2017-10-12T16:53:23.487Z,0.00
2017-10-12T16:55:16.357Z,0.00
2017-10-12T16:56:16.201Z,0.00
2017-10-12T16:58:08.967Z,0.00
2017-10-12T16:59:08.912Z,0.00
2017-10-12T17:01:01.726Z,0.00
2017-10-12T17:02:01.599Z,0.00
2017-10-12T17:03:54.886Z,0.00
2017-10-12T17:04:54.764Z,0.00
2017-10-12T17:06:47.620Z,0.00
2017-10-12T17:07:47.495Z,0.00
2017-10-12T17:09:40.539Z,0.00
2017-10-12T17:10:40.197Z,0.00
2017-10-12T17:12:32.888Z,0.00
2017-10-12T17:13:32.815Z,0.00
2017-10-12T17:15:25.669Z,0.00
2017-10-12T17:16:25.540Z,0.00
2017-10-12T17:18:18.421Z,0.00
2017-10-12T17:19:18.224Z,0.00
2017-10-12T17:21:11.055Z,0.00
2017-10-12T17:22:10.995Z,0.00
2017-10-12T17:24:03.638Z,0.00
2017-10-12T17:25:03.549Z,0.00
2017-10-12T17:26:56.630Z,0.00
2017-10-12T17:27:56.468Z,0.00
2017-10-12T17:29:49.282Z,0.00
2017-10-12T17:30:49.221Z,0.00
2017-10-12T17:32:42.056Z,0.00
2017-10-12T17:33:41.871Z,0.00
2017-10-12T17:35:34.599Z,0.00
2017-10-12T17:36:34.518Z,0.00
2017-10-12T17:38:27.316Z,0.00
2017-10-12T17:39:27.187Z,0.00
2017-10-12T17:42:19.905Z,0.00
2017-10-12T17:44:12.687Z,0.00
2017-10-12T17:45:12.676Z,0.00
2017-10-12T17:47:05.294Z,0.00
2017-10-12T17:48:05.198Z,0.00
2017-10-12T17:49:57.988Z,0.00
2017-10-12T17:50:57.844Z,0.00
2017-10-12T17:52:50.659Z,0.00
2017-10-12T17:53:50.523Z,0.00
2017-10-12T17:55:43.339Z,0.00
2017-10-12T17:56:43.210Z,0.00
2017-10-12T17:58:36.069Z,0.00
2017-10-12T17:59:35.848Z,0.00
2017-10-12T18:01:28.634Z,0.00
2017-10-12T18:02:28.537Z,0.00
2017-10-12T18:05:21.490Z,0.00
2017-10-12T18:07:14.375Z,0.00
2017-10-12T18:08:14.405Z,0.00
2017-10-12T18:10:06.972Z,0.00
2017-10-12T18:11:06.815Z,0.00
2017-10-12T18:12:59.563Z,0.00
2017-10-12T18:13:59.483Z,0.00
2017-10-12T18:15:52.348Z,0.00
2017-10-12T18:18:45.137Z,0.00
2017-10-12T18:19:44.967Z,0.00
2017-10-12T18:21:37.758Z,0.00
2017-10-12T18:22:37.598Z,0.00
2017-10-12T18:25:30.266Z,0.00
2017-10-12T18:27:23.097Z,0.00
2017-10-12T18:28:23.017Z,0.00
2017-10-12T18:30:15.834Z,0.00
2017-10-12T18:31:15.673Z,0.00
2017-10-12T18:33:08.409Z,0.00
2017-10-12T18:34:08.334Z,0.00
2017-10-12T18:36:01.228Z,0.00
2017-10-12T18:37:01.098Z,0.00
2017-10-12T18:38:53.907Z,0.00
2017-10-12T18:39:53.807Z,0.00
2017-10-12T18:41:46.617Z,0.00
2017-10-12T18:42:46.489Z,0.00
2017-10-12T18:44:39.406Z,0.00